Nyona Lake, Indiana
Current Conditions -  °F | °C
As of 6:55 AM on Thursday 23 Oct 2014 (Local Time) from KRCR Reporting Station
Moderate Fog Moderate Fog  
Wind Chill: 34°   Ceiling: Unl
Heat Index: 34°   Visibility: 0mi
Dew Point: 34°   Wind: 3mph
Humidity: 100%   Direction: 120°ESE
Pressure: 30.26"   Gusts: NA
Location:  40.9677°N, 86.1226°W
Report Text: KRCR 231055Z AUTO 12003KT M1/4SM FG VV000 01/01 A3026 RMK AO2
Loading
Personal Weather Stations






























Interactive Weather Map
Tropical Storm Tracking
New forecast layout! Learn more

10-Day Weather Forecast

Advertisements
Track Severe Weather on mobile